Time;durP1;ratioP1;P1;durP2;ratioP2;P2;SDS_P1;SDS_P2;PMS_P1;PMS_P2;Temp;Humidity;BMP_temperature;BMP_pressure;BME280_temperature;BME280_humidity;BME280_pressure;Samples;Min_cycle;Max_cycle;Signal;HPM_P1;HPM_P2
2023/07/21 00:01:28;;;;;;;;;;;24.60;62.00;;;;;;8525808;27;19914;-51
2023/07/21 00:05:29;;;;;;;;;;;24.60;61.80;;;;;;8544593;27;20379;-50
2023/07/21 00:09:30;;;;;;;;;;;24.60;62.00;;;;;;8544542;27;20540;-50
2023/07/21 00:13:35;;;;;;;;;;;24.60;61.90;;;;;;8508089;27;20394;-50
2023/07/21 00:17:35;;;;;;;;;;;24.60;61.90;;;;;;8544213;27;19934;-50
2023/07/21 00:21:36;;;;;;;;;;;24.60;61.90;;;;;;8544552;27;20391;-48
2023/07/21 00:25:36;;;;;;;;;;;24.60;61.90;;;;;;8543550;27;20337;-52
2023/07/21 00:29:37;;;;;;;;;;;24.60;62.00;;;;;;8544012;27;20400;-52
2023/07/21 00:33:37;;;;;;;;;;;24.60;61.80;;;;;;8522166;27;19917;-49
2023/07/21 00:37:38;;;;;;;;;;;24.50;61.80;;;;;;8543705;27;19969;-49
2023/07/21 00:41:40;;;;;;;;;;;24.60;61.90;;;;;;8543390;27;19930;-48
2023/07/21 00:45:40;;;;;;;;;;;24.60;62.00;;;;;;8544089;27;19915;-49
2023/07/21 00:49:41;;;;;;;;;;;24.60;62.00;;;;;;8543639;27;19964;-51
2023/07/21 00:53:42;;;;;;;;;;;24.50;61.90;;;;;;8507560;27;19954;-51
2023/07/21 00:57:43;;;;;;;;;;;24.50;62.20;;;;;;8504069;27;20020;-52
2023/07/21 01:01:44;;;;;;;;;;;24.60;62.10;;;;;;8498135;27;20330;-48
2023/07/21 01:05:52;;;;;;;;;;;24.50;61.90;;;;;;8501484;27;20055;-51
2023/07/21 01:09:52;;;;;;;;;;;24.60;62.10;;;;;;8531677;27;19911;-51
2023/07/21 01:13:54;;;;;;;;;;;24.60;62.10;;;;;;8531633;27;20396;-48
2023/07/21 01:17:55;;;;;;;;;;;24.60;62.00;;;;;;8531564;27;19954;-51
2023/07/21 01:21:58;;;;;;;;;;;24.50;62.00;;;;;;8530238;27;20380;-51
2023/07/21 01:25:59;;;;;;;;;;;24.50;62.10;;;;;;8489133;27;19918;-51
2023/07/21 01:30:02;;;;;;;;;;;24.50;62.10;;;;;;8496910;27;19918;-52
2023/07/21 01:34:04;;;;;;;;;;;24.60;62.00;;;;;;8497145;28;20076;-49
2023/07/21 01:38:05;;;;;;;;;;;24.60;62.10;;;;;;8496657;28;19966;-52
2023/07/21 01:42:06;;;;;;;;;;;24.50;62.10;;;;;;8518287;27;19914;-51
2023/07/21 01:46:13;;;;;;;;;;;24.50;62.20;;;;;;8550686;27;19914;-50
2023/07/21 01:50:18;;;;;;;;;;;24.50;62.00;;;;;;8550940;27;19911;-49
2023/07/21 01:54:22;;;;;;;;;;;24.50;62.00;;;;;;8550746;27;20325;-50
2023/07/21 01:58:23;;;;;;;;;;;24.50;62.00;;;;;;8516053;27;19907;-51
2023/07/21 02:02:24;;;;;;;;;;;24.40;61.90;;;;;;8535891;27;19972;-51
2023/07/21 02:06:24;;;;;;;;;;;24.40;62.00;;;;;;8535273;27;19911;-49
2023/07/21 02:10:25;;;;;;;;;;;24.40;62.00;;;;;;8535977;27;19918;-49
2023/07/21 02:14:25;;;;;;;;;;;24.40;62.00;;;;;;8534770;27;19970;-51
2023/07/21 02:18:26;;;;;;;;;;;24.40;62.10;;;;;;8535233;27;20059;-51
2023/07/21 02:22:27;;;;;;;;;;;24.40;62.10;;;;;;8534898;27;19918;-51
2023/07/21 02:26:27;;;;;;;;;;;24.30;62.00;;;;;;8498630;27;19960;-50
2023/07/21 02:30:29;;;;;;;;;;;24.40;62.10;;;;;;8500575;27;19958;-51
2023/07/21 02:34:29;;;;;;;;;;;24.40;62.10;;;;;;8500266;27;20623;-51
2023/07/21 02:38:30;;;;;;;;;;;24.40;62.20;;;;;;8500064;27;19911;-50
2023/07/21 02:42:30;;;;;;;;;;;24.30;62.20;;;;;;8481701;27;19914;-51
2023/07/21 02:46:31;;;;;;;;;;;24.30;62.30;;;;;;8500237;27;19912;-51
2023/07/21 02:50:32;;;;;;;;;;;24.30;62.30;;;;;;8499377;27;19915;-52
2023/07/21 02:54:33;;;;;;;;;;;24.30;62.30;;;;;;8498871;27;20313;-49
2023/07/21 02:58:33;;;;;;;;;;;24.30;62.30;;;;;;8499214;27;20291;-51
2023/07/21 03:02:35;;;;;;;;;;;24.30;62.30;;;;;;8499353;27;19960;-51
2023/07/21 03:06:36;;;;;;;;;;;24.30;62.30;;;;;;8480647;27;19918;-51
2023/07/21 03:10:36;;;;;;;;;;;24.30;62.40;;;;;;8499018;27;19912;-51
2023/07/21 03:14:37;;;;;;;;;;;24.20;62.30;;;;;;8498654;27;19924;-49
2023/07/21 03:18:37;;;;;;;;;;;24.30;62.40;;;;;;8498920;27;19956;-49
2023/07/21 03:22:38;;;;;;;;;;;24.30;62.40;;;;;;8498547;27;19965;-51
2023/07/21 03:26:39;;;;;;;;;;;24.30;62.40;;;;;;8498972;27;19908;-51
2023/07/21 03:30:40;;;;;;;;;;;24.30;62.40;;;;;;8498686;27;19919;-51
2023/07/21 03:34:41;;;;;;;;;;;24.30;62.40;;;;;;8498033;27;19916;-49
2023/07/21 03:38:42;;;;;;;;;;;24.20;62.30;;;;;;8498653;27;19918;-51
2023/07/21 03:42:42;;;;;;;;;;;24.20;62.30;;;;;;8497893;27;20253;-50
2023/07/21 03:46:43;;;;;;;;;;;24.20;62.40;;;;;;8497915;27;19998;-50
2023/07/21 03:50:43;;;;;;;;;;;24.20;62.40;;;;;;8479151;27;20369;-49
2023/07/21 03:54:44;;;;;;;;;;;24.20;62.50;;;;;;8479438;27;20140;-49
2023/07/21 03:58:44;;;;;;;;;;;24.20;62.40;;;;;;8497397;27;19911;-50
2023/07/21 04:02:45;;;;;;;;;;;24.20;62.40;;;;;;8497556;27;19907;-51
2023/07/21 04:06:46;;;;;;;;;;;24.20;62.40;;;;;;8496939;27;19911;-47
2023/07/21 04:10:46;;;;;;;;;;;24.20;62.40;;;;;;8478528;27;20396;-48
2023/07/21 04:14:47;;;;;;;;;;;24.20;62.50;;;;;;8496930;27;19924;-48
2023/07/21 04:18:47;;;;;;;;;;;24.20;62.40;;;;;;8497186;27;20006;-47
2023/07/21 04:22:49;;;;;;;;;;;24.20;62.40;;;;;;8496596;27;19911;-47
2023/07/21 04:26:50;;;;;;;;;;;24.20;62.50;;;;;;8497244;27;20388;-47
2023/07/21 04:30:53;;;;;;;;;;;24.20;62.60;;;;;;8496918;27;19980;-47
2023/07/21 04:34:54;;;;;;;;;;;24.20;62.60;;;;;;8496386;27;20372;-48
2023/07/21 04:38:56;;;;;;;;;;;24.20;62.60;;;;;;8497606;27;20360;-50
2023/07/21 04:42:57;;;;;;;;;;;24.20;62.60;;;;;;8496721;27;19919;-48
2023/07/21 04:46:57;;;;;;;;;;;24.20;62.60;;;;;;8496535;27;20361;-49
2023/07/21 04:50:58;;;;;;;;;;;24.20;62.60;;;;;;8496032;27;20320;-51
2023/07/21 04:54:58;;;;;;;;;;;24.20;62.60;;;;;;8495910;27;19915;-51
2023/07/21 04:58:59;;;;;;;;;;;24.20;62.60;;;;;;8495782;27;19922;-49
2023/07/21 05:03:00;;;;;;;;;;;24.20;62.60;;;;;;8494017;27;20291;-50
2023/07/21 05:07:01;;;;;;;;;;;24.10;62.50;;;;;;8495209;27;19907;-50
2023/07/21 05:11:01;;;;;;;;;;;24.20;62.60;;;;;;8495283;27;19911;-51
2023/07/21 05:15:02;;;;;;;;;;;24.20;62.60;;;;;;8494998;27;19946;-50
2023/07/21 05:19:03;;;;;;;;;;;24.20;62.60;;;;;;8475837;27;19911;-51
2023/07/21 05:23:04;;;;;;;;;;;24.10;62.60;;;;;;8495355;27;19915;-50
2023/07/21 05:27:05;;;;;;;;;;;24.10;62.50;;;;;;8504713;27;19920;-51
2023/07/21 05:31:06;;;;;;;;;;;24.10;62.60;;;;;;8494715;27;19914;-51
2023/07/21 05:35:07;;;;;;;;;;;24.10;62.50;;;;;;8459534;28;20269;-50
2023/07/21 05:39:08;;;;;;;;;;;24.10;62.50;;;;;;8494505;28;19907;-51
2023/07/21 05:43:08;;;;;;;;;;;24.10;62.60;;;;;;8494795;28;19998;-51
2023/07/21 05:47:09;;;;;;;;;;;24.10;62.50;;;;;;8494445;28;19912;-51
2023/07/21 05:51:13;;;;;;;;;;;24.10;62.60;;;;;;8475964;28;19915;-51
2023/07/21 05:55:13;;;;;;;;;;;24.10;62.60;;;;;;8494778;27;19915;-49
2023/07/21 05:59:14;;;;;;;;;;;24.10;62.50;;;;;;8494910;28;19915;-51
2023/07/21 06:03:14;;;;;;;;;;;24.10;62.60;;;;;;8494438;28;19912;-51
2023/07/21 06:07:15;;;;;;;;;;;24.10;62.60;;;;;;8495185;28;20076;-49
2023/07/21 06:11:15;;;;;;;;;;;24.10;62.50;;;;;;8494531;28;19912;-51
2023/07/21 06:15:16;;;;;;;;;;;24.10;62.60;;;;;;8494131;28;19982;-50
2023/07/21 06:19:17;;;;;;;;;;;24.10;62.60;;;;;;8510392;27;19961;-50
2023/07/21 06:23:17;;;;;;;;;;;24.10;62.60;;;;;;8475365;28;19911;-48
2023/07/21 06:27:18;;;;;;;;;;;24.10;62.70;;;;;;8494498;27;19912;-49
2023/07/21 06:31:19;;;;;;;;;;;24.10;62.70;;;;;;8481392;27;19914;-51
2023/07/21 06:35:20;;;;;;;;;;;24.10;62.70;;;;;;8499992;27;20368;-49
2023/07/21 06:39:22;;;;;;;;;;;24.10;62.70;;;;;;8499989;27;19912;-49
2023/07/21 06:43:22;;;;;;;;;;;24.10;62.80;;;;;;8500169;27;19965;-51
2023/07/21 06:47:23;;;;;;;;;;;24.10;62.70;;;;;;8499936;27;19926;-49
2023/07/21 06:51:24;;;;;;;;;;;24.10;62.70;;;;;;8481323;27;20391;-51
2023/07/21 06:55:25;;;;;;;;;;;24.10;62.80;;;;;;8481349;27;19911;-49
2023/07/21 06:59:25;;;;;;;;;;;24.10;62.70;;;;;;8499613;27;20447;-49
2023/07/21 07:03:26;;;;;;;;;;;24.10;62.60;;;;;;8499522;27;19912;-51
2023/07/21 07:07:27;;;;;;;;;;;24.10;62.60;;;;;;8499111;27;19911;-49
2023/07/21 07:11:28;;;;;;;;;;;24.10;62.60;;;;;;8499137;27;19911;-51
2023/07/21 07:15:28;;;;;;;;;;;24.10;62.70;;;;;;8498725;27;19966;-51
2023/07/21 07:19:29;;;;;;;;;;;24.10;62.60;;;;;;8499058;27;19925;-51
2023/07/21 07:23:29;;;;;;;;;;;24.10;62.70;;;;;;8498455;27;19912;-50
2023/07/21 07:27:30;;;;;;;;;;;24.10;62.60;;;;;;8498987;27;19915;-51
2023/07/21 07:31:31;;;;;;;;;;;24.10;62.70;;;;;;8498801;27;20319;-51
2023/07/21 07:35:31;;;;;;;;;;;24.10;62.70;;;;;;8498126;27;20326;-50
2023/07/21 07:39:32;;;;;;;;;;;24.10;62.60;;;;;;8514154;27;19984;-51
2023/07/21 07:43:32;;;;;;;;;;;24.10;62.60;;;;;;8498019;27;19947;-48
2023/07/21 07:47:34;;;;;;;;;;;24.10;62.60;;;;;;8498037;27;20006;-50
2023/07/21 07:51:41;;;;;;;;;;;24.10;62.60;;;;;;8479208;27;20494;-50
2023/07/21 07:55:42;;;;;;;;;;;24.10;62.60;;;;;;8498140;27;20284;-49
2023/07/21 07:59:43;;;;;;;;;;;24.10;62.60;;;;;;8497882;27;19930;-50
2023/07/21 08:03:43;;;;;;;;;;;24.10;62.70;;;;;;8497450;27;19912;-50
2023/07/21 08:07:44;;;;;;;;;;;24.10;63.50;;;;;;8513111;27;20356;-51
2023/07/21 08:11:45;;;;;;;;;;;24.10;62.80;;;;;;8496956;27;20323;-51
2023/07/21 08:15:46;;;;;;;;;;;24.00;62.60;;;;;;8461717;28;19924;-49
2023/07/21 08:19:46;;;;;;;;;;;24.10;62.70;;;;;;8462571;28;20417;-49
2023/07/21 08:23:48;;;;;;;;;;;24.00;62.60;;;;;;8462689;28;19964;-51
2023/07/21 08:27:49;;;;;;;;;;;24.00;62.60;;;;;;8463141;27;19908;-50
2023/07/21 08:31:49;;;;;;;;;;;24.10;62.80;;;;;;8462437;28;20407;-51
2023/07/21 08:35:50;;;;;;;;;;;24.00;62.60;;;;;;8462180;28;20292;-50
2023/07/21 08:39:51;;;;;;;;;;;24.00;62.60;;;;;;8462317;28;19918;-48
2023/07/21 08:43:51;;;;;;;;;;;24.00;62.60;;;;;;8462871;28;20373;-49
2023/07/21 08:47:52;;;;;;;;;;;24.00;62.60;;;;;;8462164;28;19946;-49
2023/07/21 08:51:53;;;;;;;;;;;24.00;62.60;;;;;;8460816;28;19912;-51
2023/07/21 08:55:54;;;;;;;;;;;24.00;62.60;;;;;;8461882;27;19923;-49
2023/07/21 08:59:55;;;;;;;;;;;24.00;62.60;;;;;;8461860;28;19950;-50
2023/07/21 09:03:55;;;;;;;;;;;24.00;62.60;;;;;;8461329;28;19908;-50
2023/07/21 09:07:56;;;;;;;;;;;24.10;62.60;;;;;;8461606;28;20043;-50
2023/07/21 09:12:04;;;;;;;;;;;24.00;62.60;;;;;;8461278;28;20380;-50
2023/07/21 09:16:05;;;;;;;;;;;24.00;62.60;;;;;;8461611;28;20511;-48
2023/07/21 09:20:07;;;;;;;;;;;24.00;62.60;;;;;;8460809;28;19947;-50
2023/07/21 09:24:09;;;;;;;;;;;24.10;62.60;;;;;;8461225;28;19911;-51
2023/07/21 09:28:09;;;;;;;;;;;24.00;62.60;;;;;;8461242;28;19915;-51
2023/07/21 09:32:13;;;;;;;;;;;24.10;62.60;;;;;;8460827;28;19919;-49
2023/07/21 09:36:15;;;;;;;;;;;24.10;62.60;;;;;;8461272;28;19916;-51
2023/07/21 09:40:16;;;;;;;;;;;24.00;62.60;;;;;;8460657;28;19908;-48
2023/07/21 09:44:17;;;;;;;;;;;24.10;62.60;;;;;;8494078;27;19907;-48
2023/07/21 09:48:19;;;;;;;;;;;24.10;62.70;;;;;;8460730;28;20002;-49
2023/07/21 09:52:20;;;;;;;;;;;24.10;62.60;;;;;;8461360;28;20010;-49
2023/07/21 09:56:21;;;;;;;;;;;24.00;62.60;;;;;;8460789;28;19928;-48
2023/07/21 10:00:26;;;;;;;;;;;24.00;62.60;;;;;;8460561;28;19908;-51
2023/07/21 10:04:27;;;;;;;;;;;24.00;62.60;;;;;;8463970;28;20381;-51
2023/07/21 10:08:28;;;;;;;;;;;24.00;62.70;;;;;;8467114;28;19907;-50
2023/07/21 10:12:39;;;;;;;;;;;24.00;62.70;;;;;;8470558;27;19923;-51
2023/07/21 10:16:40;;;;;;;;;;;24.00;62.60;;;;;;8500969;27;19915;-51
2023/07/21 10:20:49;;;;;;;;;;;24.00;63.40;;;;;;8501565;27;19951;-51
2023/07/21 10:24:51;;;;;;;;;;;24.10;62.70;;;;;;8500709;27;19914;-50
2023/07/21 10:28:53;;;;;;;;;;;24.00;62.60;;;;;;8482536;27;19908;-50
2023/07/21 10:32:54;;;;;;;;;;;24.00;63.40;;;;;;8500072;27;20451;-51
2023/07/21 10:36:58;;;;;;;;;;;24.10;62.80;;;;;;8499983;27;20337;-51
2023/07/21 10:40:59;;;;;;;;;;;24.00;62.60;;;;;;8500219;27;19914;-50
2023/07/21 10:45:07;;;;;;;;;;;24.00;62.50;;;;;;8499883;27;19912;-49
2023/07/21 10:49:12;;;;;;;;;;;24.10;62.60;;;;;;8500034;27;20023;-51
2023/07/21 10:53:13;;;;;;;;;;;24.10;62.60;;;;;;8499289;27;19924;-49
2023/07/21 10:57:13;;;;;;;;;;;24.10;62.70;;;;;;8499996;27;19992;-50
2023/07/21 11:01:17;;;;;;;;;;;24.00;62.60;;;;;;8499318;27;19911;-51
2023/07/21 11:05:17;;;;;;;;;;;24.00;62.50;;;;;;8500309;27;19908;-50
2023/07/21 11:09:19;;;;;;;;;;;24.10;62.60;;;;;;8499202;27;19918;-51
2023/07/21 11:13:21;;;;;;;;;;;24.10;62.60;;;;;;8498776;27;19919;-49
2023/07/21 11:17:22;;;;;;;;;;;24.00;62.50;;;;;;8498649;27;19918;-49
2023/07/21 11:21:22;;;;;;;;;;;24.10;62.60;;;;;;8498600;27;19908;-51
2023/07/21 11:25:23;;;;;;;;;;;24.00;62.60;;;;;;8498997;27;20376;-49
2023/07/21 11:29:25;;;;;;;;;;;24.10;62.60;;;;;;8498454;27;19912;-49
2023/07/21 11:33:39;;;;;;;;;;;24.10;62.60;;;;;;8498605;27;19955;-49
2023/07/21 11:37:41;;;;;;;;;;;24.10;62.50;;;;;;8498291;27;19911;-51
2023/07/21 11:41:41;;;;;;;;;;;24.10;62.50;;;;;;8498094;27;19907;-51
2023/07/21 11:45:42;;;;;;;;;;;24.10;62.50;;;;;;8498244;27;19915;-51
2023/07/21 11:49:44;;;;;;;;;;;24.10;62.60;;;;;;8497650;27;19952;-51
2023/07/21 11:53:45;;;;;;;;;;;24.10;62.60;;;;;;8497930;27;19912;-52
2023/07/21 11:57:46;;;;;;;;;;;24.10;62.60;;;;;;8498309;27;19911;-49
2023/07/21 12:01:47;;;;;;;;;;;24.10;62.60;;;;;;8497651;27;19912;-51
2023/07/21 12:05:47;;;;;;;;;;;24.10;62.70;;;;;;8497732;27;20441;-50
2023/07/21 12:09:48;;;;;;;;;;;24.10;62.70;;;;;;8497444;27;20343;-51
2023/07/21 12:13:49;;;;;;;;;;;24.10;62.60;;;;;;8496731;27;19930;-47
2023/07/21 12:17:49;;;;;;;;;;;24.10;63.40;;;;;;8496937;27;19916;-48
2023/07/21 12:21:51;;;;;;;;;;;24.10;62.60;;;;;;8496608;27;20423;-47
2023/07/21 12:25:52;;;;;;;;;;;24.00;62.50;;;;;;8497238;27;19908;-47
2023/07/21 12:29:52;;;;;;;;;;;24.10;62.50;;;;;;8497052;27;19911;-51
2023/07/21 12:33:53;;;;;;;;;;;24.00;62.50;;;;;;8496681;27;19911;-47
2023/07/21 12:37:54;;;;;;;;;;;24.10;62.50;;;;;;8496373;27;19911;-52
2023/07/21 12:41:55;;;;;;;;;;;24.10;62.50;;;;;;8496084;27;20173;-48
2023/07/21 12:45:56;;;;;;;;;;;24.10;62.50;;;;;;8496919;27;20530;-50
2023/07/21 12:49:56;;;;;;;;;;;24.10;62.50;;;;;;8496185;27;19912;-51
2023/07/21 12:53:57;;;;;;;;;;;24.10;62.50;;;;;;8477692;27;19918;-50
2023/07/21 12:57:57;;;;;;;;;;;24.10;62.50;;;;;;8495783;27;19919;-51
2023/07/21 13:01:58;;;;;;;;;;;24.10;62.50;;;;;;8495877;27;19916;-50
2023/07/21 13:05:58;;;;;;;;;;;24.10;62.50;;;;;;8495246;27;19915;-49
2023/07/21 13:09:59;;;;;;;;;;;24.10;62.50;;;;;;8477163;27;19947;-51
2023/07/21 13:13:59;;;;;;;;;;;24.10;62.50;;;;;;8495369;27;19927;-51
2023/07/21 13:18:00;;;;;;;;;;;24.10;62.50;;;;;;8495284;27;19911;-52
2023/07/21 13:22:05;;;;;;;;;;;24.10;62.50;;;;;;8495421;27;20360;-51
2023/07/21 13:26:06;;;;;;;;;;;24.10;62.40;;;;;;8495287;27;19911;-50
2023/07/21 13:30:07;;;;;;;;;;;24.10;62.40;;;;;;8510842;27;19911;-51
2023/07/21 13:34:08;;;;;;;;;;;24.10;62.40;;;;;;8494675;27;19918;-49
2023/07/21 13:38:08;;;;;;;;;;;24.10;62.50;;;;;;8494757;27;19918;-50
2023/07/21 13:42:09;;;;;;;;;;;24.10;62.50;;;;;;8494559;28;19917;-51
2023/07/21 13:46:10;;;;;;;;;;;24.10;62.50;;;;;;8494819;28;19912;-50
2023/07/21 13:50:10;;;;;;;;;;;24.10;62.50;;;;;;8476629;28;19964;-49
2023/07/21 13:54:11;;;;;;;;;;;24.10;62.50;;;;;;8494999;28;19916;-49
2023/07/21 13:58:12;;;;;;;;;;;24.10;62.50;;;;;;8477980;28;19935;-48
2023/07/21 14:02:12;;;;;;;;;;;24.10;62.50;;;;;;8494288;28;19908;-49
2023/07/21 14:06:14;;;;;;;;;;;24.10;62.50;;;;;;8494442;28;20464;-50
2023/07/21 14:10:15;;;;;;;;;;;24.10;62.50;;;;;;8494373;28;19952;-52
2023/07/21 14:14:15;;;;;;;;;;;24.10;62.50;;;;;;8494170;28;19925;-50
2023/07/21 14:18:17;;;;;;;;;;;24.10;62.50;;;;;;8494131;28;19930;-49
2023/07/21 14:22:17;;;;;;;;;;;24.10;62.50;;;;;;8494674;28;19916;-49
2023/07/21 14:26:18;;;;;;;;;;;24.10;62.40;;;;;;8494267;27;19918;-51
2023/07/21 14:30:18;;;;;;;;;;;24.10;62.40;;;;;;8494927;28;19934;-48
2023/07/21 14:34:19;;;;;;;;;;;24.10;62.30;;;;;;8493632;28;19911;-48
2023/07/21 14:38:21;;;;;;;;;;;24.10;62.30;;;;;;8494279;28;19911;-48
2023/07/21 14:42:22;;;;;;;;;;;24.10;62.30;;;;;;8493785;28;20337;-51
2023/07/21 14:46:22;;;;;;;;;;;24.10;62.40;;;;;;8475117;28;20277;-50
2023/07/21 14:50:24;;;;;;;;;;;24.10;62.40;;;;;;8495351;27;19918;-50
2023/07/21 14:54:24;;;;;;;;;;;24.10;62.30;;;;;;8499609;27;19965;-51
2023/07/21 14:58:25;;;;;;;;;;;24.10;62.30;;;;;;8499839;27;19908;-50
2023/07/21 15:02:25;;;;;;;;;;;24.10;62.30;;;;;;8499380;27;19912;-51
2023/07/21 15:06:26;;;;;;;;;;;24.10;62.20;;;;;;8499486;27;19999;-51
2023/07/21 15:10:28;;;;;;;;;;;24.10;62.20;;;;;;8499322;27;19911;-51
2023/07/21 15:14:28;;;;;;;;;;;24.10;62.30;;;;;;8498924;27;20461;-49
2023/07/21 15:18:29;;;;;;;;;;;24.10;62.20;;;;;;8498966;27;20257;-49
2023/07/21 15:22:30;;;;;;;;;;;24.10;62.20;;;;;;8480321;27;19911;-48
2023/07/21 15:26:30;;;;;;;;;;;24.10;62.30;;;;;;8499294;27;20306;-50
2023/07/21 15:30:31;;;;;;;;;;;24.10;62.20;;;;;;8498344;27;19911;-51
2023/07/21 15:34:32;;;;;;;;;;;24.10;62.30;;;;;;8498739;27;20018;-50
2023/07/21 15:38:32;;;;;;;;;;;24.10;62.30;;;;;;8498072;27;19912;-49
2023/07/21 15:42:33;;;;;;;;;;;24.10;62.30;;;;;;8498303;27;19908;-50
2023/07/21 15:46:33;;;;;;;;;;;24.10;62.30;;;;;;8497961;27;19916;-49
2023/07/21 15:50:34;;;;;;;;;;;24.10;62.30;;;;;;8479423;27;19919;-50
2023/07/21 15:54:35;;;;;;;;;;;24.10;62.30;;;;;;8498019;27;19912;-49
2023/07/21 15:58:36;;;;;;;;;;;24.10;62.20;;;;;;8497848;27;19908;-49
2023/07/21 16:02:38;;;;;;;;;;;24.10;62.20;;;;;;8496986;27;19907;-49
2023/07/21 16:06:38;;;;;;;;;;;24.10;62.20;;;;;;8497395;27;19908;-50
2023/07/21 16:10:39;;;;;;;;;;;24.10;62.20;;;;;;8513383;27;19963;-49
2023/07/21 16:14:42;;;;;;;;;;;24.10;62.20;;;;;;8496904;27;20018;-51
2023/07/21 16:18:44;;;;;;;;;;;24.10;62.20;;;;;;8497466;27;19907;-50
2023/07/21 16:22:44;;;;;;;;;;;24.10;62.20;;;;;;8496713;27;20016;-50
2023/07/21 16:26:45;;;;;;;;;;;24.10;62.10;;;;;;8497298;27;19915;-50
2023/07/21 16:30:45;;;;;;;;;;;24.10;62.20;;;;;;8496655;27;19907;-49
2023/07/21 16:34:46;;;;;;;;;;;24.10;62.10;;;;;;8496842;27;19915;-50
2023/07/21 16:38:46;;;;;;;;;;;24.10;62.10;;;;;;8496277;27;19943;-49
2023/07/21 16:42:47;;;;;;;;;;;24.10;62.10;;;;;;8496739;27;19911;-50
2023/07/21 16:46:48;;;;;;;;;;;24.10;62.10;;;;;;8496744;27;20377;-48
2023/07/21 16:50:49;;;;;;;;;;;24.10;62.10;;;;;;8496118;27;19912;-48
2023/07/21 16:54:50;;;;;;;;;;;24.10;62.10;;;;;;8496354;27;19923;-50
2023/07/21 16:58:51;;;;;;;;;;;24.10;62.10;;;;;;8495700;27;19919;-49
2023/07/21 17:02:51;;;;;;;;;;;24.10;62.10;;;;;;8496395;27;19912;-51
2023/07/21 17:06:52;;;;;;;;;;;24.10;62.10;;;;;;8495274;27;20003;-51
2023/07/21 17:10:52;;;;;;;;;;;24.10;62.10;;;;;;8495327;27;20328;-49
2023/07/21 17:14:53;;;;;;;;;;;24.10;62.10;;;;;;8494681;27;20283;-49
2023/07/21 17:18:53;;;;;;;;;;;24.10;62.00;;;;;;8511535;27;19919;-49
2023/07/21 17:22:54;;;;;;;;;;;24.10;62.10;;;;;;8477407;27;19912;-51
2023/07/21 17:26:54;;;;;;;;;;;24.10;62.10;;;;;;8495487;27;19919;-51
2023/07/21 17:30:55;;;;;;;;;;;24.10;62.20;;;;;;8496129;27;20020;-52
2023/07/21 17:34:55;;;;;;;;;;;24.10;62.20;;;;;;8494803;27;19920;-49
2023/07/21 17:38:56;;;;;;;;;;;24.10;62.30;;;;;;8495230;28;19918;-50
2023/07/21 17:42:56;;;;;;;;;;;24.10;62.20;;;;;;8494725;28;19965;-51
2023/07/21 17:46:57;;;;;;;;;;;24.10;62.20;;;;;;8495082;28;19915;-51
2023/07/21 17:50:58;;;;;;;;;;;24.10;62.20;;;;;;8494392;28;20437;-48
2023/07/21 17:54:59;;;;;;;;;;;24.10;62.20;;;;;;8494912;27;19919;-48
2023/07/21 17:58:59;;;;;;;;;;;24.10;62.10;;;;;;8494530;28;19908;-48
2023/07/21 18:03:00;;;;;;;;;;;24.10;62.10;;;;;;8494584;28;20033;-51
2023/07/21 18:07:01;;;;;;;;;;;24.10;62.20;;;;;;8494287;28;20380;-51
2023/07/21 18:11:03;;;;;;;;;;;24.10;62.20;;;;;;8510407;27;19919;-49
2023/07/21 18:15:03;;;;;;;;;;;24.10;62.20;;;;;;8492986;27;19927;-51
2023/07/21 18:19:04;;;;;;;;;;;24.10;62.20;;;;;;8460225;28;19994;-50
2023/07/21 18:23:04;;;;;;;;;;;24.10;62.10;;;;;;8460416;28;19912;-52
2023/07/21 18:27:05;;;;;;;;;;;24.10;62.20;;;;;;8466346;27;19919;-49
2023/07/21 18:31:06;;;;;;;;;;;24.10;62.10;;;;;;8466516;28;20360;-50
2023/07/21 18:35:07;;;;;;;;;;;24.10;62.10;;;;;;8466559;28;19958;-51
2023/07/21 18:39:08;;;;;;;;;;;24.10;62.10;;;;;;8466194;28;19907;-52
2023/07/21 18:43:09;;;;;;;;;;;24.10;62.10;;;;;;8498955;27;20575;-48
2023/07/21 18:47:09;;;;;;;;;;;24.10;62.20;;;;;;8466357;28;19911;-51
2023/07/21 18:51:10;;;;;;;;;;;24.10;62.20;;;;;;8465648;28;19912;-51
2023/07/21 18:55:11;;;;;;;;;;;24.10;62.30;;;;;;8464774;27;20079;-50
2023/07/21 18:59:11;;;;;;;;;;;24.10;62.20;;;;;;8464562;28;19961;-51
2023/07/21 19:03:12;;;;;;;;;;;24.00;62.10;;;;;;8465364;28;19908;-50
2023/07/21 19:07:12;;;;;;;;;;;24.10;62.20;;;;;;8465538;28;19912;-49
2023/07/21 19:11:21;;;;;;;;;;;24.10;62.20;;;;;;8465739;28;20343;-51
2023/07/21 19:15:22;;;;;;;;;;;24.10;62.20;;;;;;8493262;27;19927;-50
2023/07/21 19:19:22;;;;;;;;;;;24.10;62.10;;;;;;8498998;27;19919;-51
2023/07/21 19:23:23;;;;;;;;;;;24.10;62.20;;;;;;8499010;27;19912;-49
2023/07/21 19:27:26;;;;;;;;;;;24.10;62.10;;;;;;8499005;27;19911;-51
2023/07/21 19:31:26;;;;;;;;;;;24.10;62.10;;;;;;8480298;27;19912;-51
2023/07/21 19:35:27;;;;;;;;;;;24.10;62.20;;;;;;8497396;27;19924;-49
2023/07/21 19:39:28;;;;;;;;;;;24.10;62.10;;;;;;8514639;27;20428;-52
2023/07/21 19:43:29;;;;;;;;;;;24.10;62.10;;;;;;8498351;27;19919;-49
2023/07/21 19:47:30;;;;;;;;;;;24.10;62.10;;;;;;8498174;27;20435;-50
2023/07/21 19:51:31;;;;;;;;;;;24.10;62.20;;;;;;8497995;27;19911;-51
2023/07/21 19:55:35;;;;;;;;;;;24.10;62.20;;;;;;8498140;27;19968;-51
2023/07/21 19:59:36;;;;;;;;;;;24.10;62.20;;;;;;8497672;27;20393;-48
2023/07/21 20:03:37;;;;;;;;;;;24.10;62.30;;;;;;8498046;27;20372;-49
2023/07/21 20:07:38;;;;;;;;;;;24.10;62.30;;;;;;8498232;27;20329;-49
2023/07/21 20:11:40;;;;;;;;;;;24.00;62.30;;;;;;8478989;27;19912;-50
2023/07/21 20:15:41;;;;;;;;;;;24.00;62.30;;;;;;8512767;27;20019;-47
2023/07/21 20:19:41;;;;;;;;;;;24.10;62.20;;;;;;8497026;27;19915;-48
2023/07/21 20:23:42;;;;;;;;;;;24.10;62.20;;;;;;8496640;27;19919;-48
2023/07/21 20:27:42;;;;;;;;;;;24.10;62.20;;;;;;8497152;27;20384;-47
2023/07/21 20:31:43;;;;;;;;;;;24.10;62.20;;;;;;8478380;27;19937;-47
2023/07/21 20:35:44;;;;;;;;;;;24.10;62.20;;;;;;8496757;27;19915;-48
2023/07/21 20:39:44;;;;;;;;;;;24.10;62.20;;;;;;8496641;27;19911;-50
2023/07/21 20:43:45;;;;;;;;;;;24.10;62.20;;;;;;8496571;27;20424;-51
2023/07/21 20:47:45;;;;;;;;;;;24.10;62.20;;;;;;8496739;27;20452;-50
2023/07/21 20:51:46;;;;;;;;;;;24.10;62.20;;;;;;8496556;27;20380;-48
2023/07/21 20:55:49;;;;;;;;;;;24.10;62.30;;;;;;8496444;27;20006;-50
2023/07/21 20:59:49;;;;;;;;;;;24.10;62.40;;;;;;8495498;27;19943;-51
2023/07/21 21:03:50;;;;;;;;;;;24.10;62.20;;;;;;8495956;27;20472;-51
2023/07/21 21:07:51;;;;;;;;;;;24.10;62.20;;;;;;8477299;27;20569;-51
2023/07/21 21:11:51;;;;;;;;;;;24.00;62.20;;;;;;8495341;27;19922;-51
2023/07/21 21:15:53;;;;;;;;;;;24.00;62.20;;;;;;8495224;27;20026;-48
2023/07/21 21:19:53;;;;;;;;;;;24.00;62.30;;;;;;8495228;27;19907;-49
2023/07/21 21:23:56;;;;;;;;;;;24.00;62.30;;;;;;8494163;27;21862;-50
2023/07/21 21:27:56;;;;;;;;;;;24.00;62.30;;;;;;8495503;27;20010;-50
2023/07/21 21:31:57;;;;;;;;;;;24.00;62.30;;;;;;8495388;27;19911;-51
2023/07/21 21:35:57;;;;;;;;;;;24.00;62.20;;;;;;8494751;27;20383;-50
2023/07/21 21:39:58;;;;;;;;;;;24.00;62.20;;;;;;8476757;28;20368;-48
2023/07/21 21:43:59;;;;;;;;;;;24.00;62.20;;;;;;8494511;28;20033;-51
2023/07/21 21:47:59;;;;;;;;;;;24.00;62.20;;;;;;8476415;28;20410;-49
2023/07/21 21:52:00;;;;;;;;;;;24.00;62.20;;;;;;8494718;28;20006;-50
2023/07/21 21:56:00;;;;;;;;;;;24.00;62.20;;;;;;8494769;27;19915;-51
2023/07/21 22:00:01;;;;;;;;;;;24.00;62.30;;;;;;8497144;27;19912;-51
2023/07/21 22:04:01;;;;;;;;;;;24.00;62.20;;;;;;8501590;27;19923;-50
2023/07/21 22:08:02;;;;;;;;;;;24.00;62.20;;;;;;8501191;27;19915;-50
2023/07/21 22:12:04;;;;;;;;;;;24.00;62.20;;;;;;8501524;27;19912;-52
2023/07/21 22:16:05;;;;;;;;;;;24.10;62.30;;;;;;8483311;27;19928;-49
2023/07/21 22:20:08;;;;;;;;;;;24.00;62.30;;;;;;8500760;27;19960;-51
2023/07/21 22:24:09;;;;;;;;;;;24.00;62.40;;;;;;8501069;27;19918;-51
2023/07/21 22:28:09;;;;;;;;;;;24.00;62.30;;;;;;8482436;27;20239;-50
2023/07/21 22:32:10;;;;;;;;;;;24.00;62.40;;;;;;8500873;27;20403;-51
2023/07/21 22:36:10;;;;;;;;;;;24.00;62.40;;;;;;8498848;27;20002;-49
2023/07/21 22:40:11;;;;;;;;;;;24.00;62.40;;;;;;8516591;27;19911;-51
2023/07/21 22:44:11;;;;;;;;;;;24.00;62.40;;;;;;8516197;27;19915;-51
2023/07/21 22:48:12;;;;;;;;;;;24.00;62.40;;;;;;8500317;27;19915;-49
2023/07/21 22:52:13;;;;;;;;;;;24.00;62.30;;;;;;8481487;27;19912;-51
2023/07/21 22:56:13;;;;;;;;;;;24.00;62.30;;;;;;8499913;27;20376;-51
2023/07/21 23:00:14;;;;;;;;;;;24.00;62.30;;;;;;8499778;27;20006;-51
2023/07/21 23:04:14;;;;;;;;;;;24.00;62.30;;;;;;8499772;27;20350;-50
2023/07/21 23:08:15;;;;;;;;;;;24.00;62.30;;;;;;8500042;27;19911;-49
2023/07/21 23:12:16;;;;;;;;;;;24.00;62.30;;;;;;8497880;27;19918;-51
2023/07/21 23:16:16;;;;;;;;;;;24.00;62.20;;;;;;8499211;27;19926;-48
2023/07/21 23:20:17;;;;;;;;;;;24.00;62.20;;;;;;8498978;27;19911;-51